sensor_id;sensor_type;location;lat;lon;timestamp;P1;durP1;ratioP1;P2;durP2;ratioP2
49296;SDS011;35163;48.878;18.040;2023-03-11T00:02:23;2.97;;;1.00;;
49296;SDS011;35163;48.878;18.040;2023-03-11T00:04:49;1.20;;;0.90;;
49296;SDS011;35163;48.878;18.040;2023-03-11T00:07:16;2.00;;;0.82;;
49296;SDS011;35163;48.878;18.040;2023-03-11T00:09:43;2.13;;;0.77;;
49296;SDS011;35163;48.878;18.040;2023-03-11T00:12:09;0.90;;;0.70;;
49296;SDS011;35163;48.878;18.040;2023-03-11T00:14:36;0.90;;;0.77;;
49296;SDS011;35163;48.878;18.040;2023-03-11T00:17:02;2.03;;;0.88;;
49296;SDS011;35163;48.878;18.040;2023-03-11T00:19:29;0.93;;;0.60;;
49296;SDS011;35163;48.878;18.040;2023-03-11T00:21:55;0.88;;;0.70;;
49296;SDS011;35163;48.878;18.040;2023-03-11T00:24:23;1.75;;;0.63;;
49296;SDS011;35163;48.878;18.040;2023-03-11T00:26:49;0.93;;;0.70;;
49296;SDS011;35163;48.878;18.040;2023-03-11T00:29:16;0.57;;;0.57;;
49296;SDS011;35163;48.878;18.040;2023-03-11T00:31:42;1.98;;;0.68;;
49296;SDS011;35163;48.878;18.040;2023-03-11T00:34:09;0.95;;;0.70;;
49296;SDS011;35163;48.878;18.040;2023-03-11T00:36:36;1.17;;;0.80;;
49296;SDS011;35163;48.878;18.040;2023-03-11T00:39:03;1.40;;;0.70;;
49296;SDS011;35163;48.878;18.040;2023-03-11T00:41:33;2.13;;;0.85;;
49296;SDS011;35163;48.878;18.040;2023-03-11T00:44:00;2.47;;;0.98;;
49296;SDS011;35163;48.878;18.040;2023-03-11T00:46:26;0.80;;;0.60;;
49296;SDS011;35163;48.878;18.040;2023-03-11T00:48:55;0.90;;;0.70;;
49296;SDS011;35163;48.878;18.040;2023-03-11T00:51:24;1.25;;;0.70;;
49296;SDS011;35163;48.878;18.040;2023-03-11T00:53:53;1.85;;;0.60;;
49296;SDS011;35163;48.878;18.040;2023-03-11T00:56:23;1.42;;;0.70;;
49296;SDS011;35163;48.878;18.040;2023-03-11T00:58:49;0.68;;;0.60;;
49296;SDS011;35163;48.878;18.040;2023-03-11T01:01:16;2.95;;;0.80;;
49296;SDS011;35163;48.878;18.040;2023-03-11T01:03:44;1.58;;;0.70;;
49296;SDS011;35163;48.878;18.040;2023-03-11T01:06:11;0.60;;;0.57;;
49296;SDS011;35163;48.878;18.040;2023-03-11T01:08:38;2.50;;;0.60;;
49296;SDS011;35163;48.878;18.040;2023-03-11T01:11:06;1.52;;;0.70;;
49296;SDS011;35163;48.878;18.040;2023-03-11T01:13:33;0.80;;;0.70;;
49296;SDS011;35163;48.878;18.040;2023-03-11T01:16:01;1.85;;;0.77;;
49296;SDS011;35163;48.878;18.040;2023-03-11T01:18:28;2.67;;;0.68;;
49296;SDS011;35163;48.878;18.040;2023-03-11T01:20:54;0.68;;;0.52;;
49296;SDS011;35163;48.878;18.040;2023-03-11T01:23:21;0.60;;;0.60;;
49296;SDS011;35163;48.878;18.040;2023-03-11T01:25:48;1.55;;;0.82;;
49296;SDS011;35163;48.878;18.040;2023-03-11T01:28:14;1.88;;;0.70;;
49296;SDS011;35163;48.878;18.040;2023-03-11T01:30:43;1.83;;;0.63;;
49296;SDS011;35163;48.878;18.040;2023-03-11T01:33:14;0.73;;;0.65;;
49296;SDS011;35163;48.878;18.040;2023-03-11T01:35:43;1.52;;;1.00;;
49296;SDS011;35163;48.878;18.040;2023-03-11T01:38:10;2.47;;;0.80;;
49296;SDS011;35163;48.878;18.040;2023-03-11T01:40:41;2.55;;;0.95;;
49296;SDS011;35163;48.878;18.040;2023-03-11T01:48:34;1.02;;;0.77;;
49296;SDS011;35163;48.878;18.040;2023-03-11T01:51:01;1.63;;;0.90;;
49296;SDS011;35163;48.878;18.040;2023-03-11T01:53:27;3.38;;;1.00;;
49296;SDS011;35163;48.878;18.040;2023-03-11T01:55:54;1.67;;;0.95;;
49296;SDS011;35163;48.878;18.040;2023-03-11T01:58:22;2.08;;;1.00;;
49296;SDS011;35163;48.878;18.040;2023-03-11T02:00:56;1.55;;;0.88;;
49296;SDS011;35163;48.878;18.040;2023-03-11T02:03:30;2.33;;;1.00;;
49296;SDS011;35163;48.878;18.040;2023-03-11T02:06:00;1.52;;;0.85;;
49296;SDS011;35163;48.878;18.040;2023-03-11T02:08:32;1.38;;;0.80;;
49296;SDS011;35163;48.878;18.040;2023-03-11T02:11:02;2.10;;;0.77;;
49296;SDS011;35163;48.878;18.040;2023-03-11T02:13:33;5.38;;;0.90;;
49296;SDS011;35163;48.878;18.040;2023-03-11T02:16:01;4.75;;;1.02;;
49296;SDS011;35163;48.878;18.040;2023-03-11T02:18:28;1.85;;;0.88;;
49296;SDS011;35163;48.878;18.040;2023-03-11T02:26:20;3.20;;;0.70;;
49296;SDS011;35163;48.878;18.040;2023-03-11T02:31:21;1.42;;;0.70;;
49296;SDS011;35163;48.878;18.040;2023-03-11T02:33:49;2.05;;;1.10;;
49296;SDS011;35163;48.878;18.040;2023-03-11T02:36:52;5.88;;;0.93;;
49296;SDS011;35163;48.878;18.040;2023-03-11T02:39:11;1.20;;;0.80;;
49296;SDS011;35163;48.878;18.040;2023-03-11T02:41:39;2.53;;;1.20;;
49296;SDS011;35163;48.878;18.040;2023-03-11T02:44:09;0.88;;;0.70;;
49296;SDS011;35163;48.878;18.040;2023-03-11T02:46:39;4.10;;;1.15;;
49296;SDS011;35163;48.878;18.040;2023-03-11T02:49:08;0.80;;;0.80;;
49296;SDS011;35163;48.878;18.040;2023-03-11T02:51:35;2.30;;;0.80;;
49296;SDS011;35163;48.878;18.040;2023-03-11T02:54:02;3.90;;;1.15;;
49296;SDS011;35163;48.878;18.040;2023-03-11T02:56:30;1.15;;;0.70;;
49296;SDS011;35163;48.878;18.040;2023-03-11T02:58:57;3.05;;;1.20;;
49296;SDS011;35163;48.878;18.040;2023-03-11T03:01:24;1.70;;;1.17;;
49296;SDS011;35163;48.878;18.040;2023-03-11T03:03:51;2.67;;;0.93;;
49296;SDS011;35163;48.878;18.040;2023-03-11T03:06:17;2.85;;;1.00;;
49296;SDS011;35163;48.878;18.040;2023-03-11T03:08:44;1.80;;;0.90;;
49296;SDS011;35163;48.878;18.040;2023-03-11T03:11:12;2.33;;;0.95;;
49296;SDS011;35163;48.878;18.040;2023-03-11T03:13:39;6.03;;;0.85;;
49296;SDS011;35163;48.878;18.040;2023-03-11T03:16:05;2.25;;;0.88;;
49296;SDS011;35163;48.878;18.040;2023-03-11T03:18:35;1.10;;;0.88;;
49296;SDS011;35163;48.878;18.040;2023-03-11T03:21:02;2.35;;;0.90;;
49296;SDS011;35163;48.878;18.040;2023-03-11T03:23:30;1.08;;;0.90;;
49296;SDS011;35163;48.878;18.040;2023-03-11T03:26:03;1.10;;;1.00;;
49296;SDS011;35163;48.878;18.040;2023-03-11T03:28:30;1.10;;;0.98;;
49296;SDS011;35163;48.878;18.040;2023-03-11T03:31:04;1.42;;;1.05;;
49296;SDS011;35163;48.878;18.040;2023-03-11T03:35:59;1.55;;;1.00;;
49296;SDS011;35163;48.878;18.040;2023-03-11T03:38:26;1.05;;;0.93;;
49296;SDS011;35163;48.878;18.040;2023-03-11T03:40:52;0.88;;;0.88;;
49296;SDS011;35163;48.878;18.040;2023-03-11T03:43:19;4.80;;;1.10;;
49296;SDS011;35163;48.878;18.040;2023-03-11T03:45:53;4.80;;;1.00;;
49296;SDS011;35163;48.878;18.040;2023-03-11T03:48:23;1.30;;;0.98;;
49296;SDS011;35163;48.878;18.040;2023-03-11T03:50:50;5.38;;;2.05;;
49296;SDS011;35163;48.878;18.040;2023-03-11T03:53:16;2.22;;;1.27;;
49296;SDS011;35163;48.878;18.040;2023-03-11T03:55:43;1.17;;;1.08;;
49296;SDS011;35163;48.878;18.040;2023-03-11T03:58:09;1.25;;;1.10;;
49296;SDS011;35163;48.878;18.040;2023-03-11T04:00:36;1.77;;;1.30;;
49296;SDS011;35163;48.878;18.040;2023-03-11T04:03:03;1.30;;;1.20;;
49296;SDS011;35163;48.878;18.040;2023-03-11T04:05:32;3.80;;;1.48;;
49296;SDS011;35163;48.878;18.040;2023-03-11T04:07:58;2.17;;;1.20;;
49296;SDS011;35163;48.878;18.040;2023-03-11T04:10:25;1.70;;;1.30;;
49296;SDS011;35163;48.878;18.040;2023-03-11T04:12:52;1.85;;;1.40;;
49296;SDS011;35163;48.878;18.040;2023-03-11T04:15:19;2.28;;;1.50;;
49296;SDS011;35163;48.878;18.040;2023-03-11T04:17:46;2.92;;;1.70;;
49296;SDS011;35163;48.878;18.040;2023-03-11T04:20:12;2.25;;;1.60;;
49296;SDS011;35163;48.878;18.040;2023-03-11T04:22:39;3.13;;;1.60;;
49296;SDS011;35163;48.878;18.040;2023-03-11T04:25:05;2.33;;;1.65;;
49296;SDS011;35163;48.878;18.040;2023-03-11T04:27:32;2.42;;;1.70;;
49296;SDS011;35163;48.878;18.040;2023-03-11T04:29:59;2.25;;;1.60;;
49296;SDS011;35163;48.878;18.040;2023-03-11T04:32:26;2.42;;;1.67;;
49296;SDS011;35163;48.878;18.040;2023-03-11T04:34:52;5.18;;;1.83;;
49296;SDS011;35163;48.878;18.040;2023-03-11T04:37:19;2.65;;;1.80;;
49296;SDS011;35163;48.878;18.040;2023-03-11T04:39:45;8.85;;;1.90;;
49296;SDS011;35163;48.878;18.040;2023-03-11T04:42:12;2.47;;;1.90;;
49296;SDS011;35163;48.878;18.040;2023-03-11T04:44:39;3.20;;;1.83;;
49296;SDS011;35163;48.878;18.040;2023-03-11T04:47:05;2.97;;;2.08;;
49296;SDS011;35163;48.878;18.040;2023-03-11T04:49:32;3.58;;;2.20;;
49296;SDS011;35163;48.878;18.040;2023-03-11T04:51:59;2.65;;;1.80;;
49296;SDS011;35163;48.878;18.040;2023-03-11T04:54:25;2.90;;;2.10;;
49296;SDS011;35163;48.878;18.040;2023-03-11T04:56:52;4.60;;;2.22;;
49296;SDS011;35163;48.878;18.040;2023-03-11T04:59:18;3.17;;;2.00;;
49296;SDS011;35163;48.878;18.040;2023-03-11T05:01:45;3.45;;;2.15;;
49296;SDS011;35163;48.878;18.040;2023-03-11T05:04:12;3.60;;;2.20;;
49296;SDS011;35163;48.878;18.040;2023-03-11T05:06:38;5.10;;;2.40;;
49296;SDS011;35163;48.878;18.040;2023-03-11T05:09:05;3.42;;;2.03;;
49296;SDS011;35163;48.878;18.040;2023-03-11T05:11:31;5.15;;;2.53;;
49296;SDS011;35163;48.878;18.040;2023-03-11T05:13:58;4.00;;;2.15;;
49296;SDS011;35163;48.878;18.040;2023-03-11T05:16:24;4.72;;;2.40;;
49296;SDS011;35163;48.878;18.040;2023-03-11T05:18:51;3.20;;;2.00;;
49296;SDS011;35163;48.878;18.040;2023-03-11T05:21:18;3.20;;;2.10;;
49296;SDS011;35163;48.878;18.040;2023-03-11T05:23:44;5.03;;;2.58;;
49296;SDS011;35163;48.878;18.040;2023-03-11T05:26:11;4.22;;;2.35;;
49296;SDS011;35163;48.878;18.040;2023-03-11T05:28:37;3.50;;;2.22;;
49296;SDS011;35163;48.878;18.040;2023-03-11T05:31:08;4.32;;;2.20;;
49296;SDS011;35163;48.878;18.040;2023-03-11T05:33:35;4.10;;;2.20;;
49296;SDS011;35163;48.878;18.040;2023-03-11T05:36:03;3.13;;;2.20;;
49296;SDS011;35163;48.878;18.040;2023-03-11T05:38:34;3.88;;;2.20;;
49296;SDS011;35163;48.878;18.040;2023-03-11T05:41:02;4.93;;;2.70;;
49296;SDS011;35163;48.878;18.040;2023-03-11T05:43:28;4.35;;;2.20;;
49296;SDS011;35163;48.878;18.040;2023-03-11T05:45:55;4.45;;;2.22;;
49296;SDS011;35163;48.878;18.040;2023-03-11T05:48:21;4.03;;;2.20;;
49296;SDS011;35163;48.878;18.040;2023-03-11T05:50:48;4.00;;;2.22;;
49296;SDS011;35163;48.878;18.040;2023-03-11T05:53:14;3.95;;;2.13;;
49296;SDS011;35163;48.878;18.040;2023-03-11T05:55:41;3.85;;;2.35;;
49296;SDS011;35163;48.878;18.040;2023-03-11T05:58:07;4.45;;;2.03;;
49296;SDS011;35163;48.878;18.040;2023-03-11T06:00:34;4.05;;;2.40;;
49296;SDS011;35163;48.878;18.040;2023-03-11T06:03:02;4.90;;;2.90;;
49296;SDS011;35163;48.878;18.040;2023-03-11T06:05:28;5.75;;;2.78;;
49296;SDS011;35163;48.878;18.040;2023-03-11T06:07:55;5.47;;;2.55;;
49296;SDS011;35163;48.878;18.040;2023-03-11T06:10:21;3.70;;;2.22;;
49296;SDS011;35163;48.878;18.040;2023-03-11T06:12:48;4.13;;;2.20;;
49296;SDS011;35163;48.878;18.040;2023-03-11T06:15:18;6.32;;;2.30;;
49296;SDS011;35163;48.878;18.040;2023-03-11T06:17:44;4.10;;;2.15;;
49296;SDS011;35163;48.878;18.040;2023-03-11T06:20:13;4.60;;;2.42;;
49296;SDS011;35163;48.878;18.040;2023-03-11T06:22:39;4.80;;;2.63;;
49296;SDS011;35163;48.878;18.040;2023-03-11T06:25:06;4.07;;;2.40;;
49296;SDS011;35163;48.878;18.040;2023-03-11T06:27:33;6.35;;;2.58;;
49296;SDS011;35163;48.878;18.040;2023-03-11T06:30:02;4.40;;;2.35;;
49296;SDS011;35163;48.878;18.040;2023-03-11T06:32:29;4.30;;;2.50;;
49296;SDS011;35163;48.878;18.040;2023-03-11T06:34:56;4.80;;;2.58;;
49296;SDS011;35163;48.878;18.040;2023-03-11T06:37:22;5.63;;;2.67;;
49296;SDS011;35163;48.878;18.040;2023-03-11T06:39:51;4.30;;;2.60;;
49296;SDS011;35163;48.878;18.040;2023-03-11T06:42:22;4.50;;;2.42;;
49296;SDS011;35163;48.878;18.040;2023-03-11T06:44:52;4.65;;;2.60;;
49296;SDS011;35163;48.878;18.040;2023-03-11T06:47:18;4.38;;;2.50;;
49296;SDS011;35163;48.878;18.040;2023-03-11T06:49:45;6.45;;;2.63;;
49296;SDS011;35163;48.878;18.040;2023-03-11T06:52:11;4.68;;;2.70;;
49296;SDS011;35163;48.878;18.040;2023-03-11T06:54:38;6.75;;;2.80;;
49296;SDS011;35163;48.878;18.040;2023-03-11T06:57:08;5.45;;;2.60;;
49296;SDS011;35163;48.878;18.040;2023-03-11T06:59:35;5.35;;;2.67;;
49296;SDS011;35163;48.878;18.040;2023-03-11T07:02:03;3.58;;;2.20;;
49296;SDS011;35163;48.878;18.040;2023-03-11T07:04:31;5.07;;;2.40;;
49296;SDS011;35163;48.878;18.040;2023-03-11T07:06:58;3.97;;;2.15;;
49296;SDS011;35163;48.878;18.040;2023-03-11T07:09:24;5.05;;;2.72;;
49296;SDS011;35163;48.878;18.040;2023-03-11T07:11:52;10.05;;;3.53;;
49296;SDS011;35163;48.878;18.040;2023-03-11T07:14:19;6.45;;;3.30;;
49296;SDS011;35163;48.878;18.040;2023-03-11T07:16:46;5.15;;;2.83;;
49296;SDS011;35163;48.878;18.040;2023-03-11T07:19:13;3.75;;;2.30;;
49296;SDS011;35163;48.878;18.040;2023-03-11T07:21:40;4.55;;;2.47;;
49296;SDS011;35163;48.878;18.040;2023-03-11T07:24:07;4.25;;;2.70;;
49296;SDS011;35163;48.878;18.040;2023-03-11T07:26:36;3.97;;;2.42;;
49296;SDS011;35163;48.878;18.040;2023-03-11T07:29:03;4.18;;;2.20;;
49296;SDS011;35163;48.878;18.040;2023-03-11T07:31:31;6.13;;;3.10;;
49296;SDS011;35163;48.878;18.040;2023-03-11T07:34:00;5.40;;;2.65;;
49296;SDS011;35163;48.878;18.040;2023-03-11T07:36:29;6.22;;;2.30;;
49296;SDS011;35163;48.878;18.040;2023-03-11T07:38:57;3.83;;;2.42;;
49296;SDS011;35163;48.878;18.040;2023-03-11T07:41:29;4.03;;;2.38;;
49296;SDS011;35163;48.878;18.040;2023-03-11T07:43:58;4.85;;;2.30;;
49296;SDS011;35163;48.878;18.040;2023-03-11T07:46:26;3.88;;;2.10;;
49296;SDS011;35163;48.878;18.040;2023-03-11T07:48:54;3.45;;;1.95;;
49296;SDS011;35163;48.878;18.040;2023-03-11T07:51:22;3.13;;;2.22;;
49296;SDS011;35163;48.878;18.040;2023-03-11T07:53:51;3.38;;;2.30;;
49296;SDS011;35163;48.878;18.040;2023-03-11T07:56:20;2.28;;;1.73;;
49296;SDS011;35163;48.878;18.040;2023-03-11T07:58:49;3.95;;;2.05;;
49296;SDS011;35163;48.878;18.040;2023-03-11T08:01:17;3.28;;;1.98;;
49296;SDS011;35163;48.878;18.040;2023-03-11T08:03:46;3.38;;;2.28;;
49296;SDS011;35163;48.878;18.040;2023-03-11T08:06:19;4.78;;;2.50;;
49296;SDS011;35163;48.878;18.040;2023-03-11T08:08:47;3.28;;;2.17;;
49296;SDS011;35163;48.878;18.040;2023-03-11T08:11:15;3.22;;;2.00;;
49296;SDS011;35163;48.878;18.040;2023-03-11T08:13:43;2.58;;;1.65;;
49296;SDS011;35163;48.878;18.040;2023-03-11T08:16:12;3.63;;;1.60;;
49296;SDS011;35163;48.878;18.040;2023-03-11T08:18:41;3.72;;;1.42;;
49296;SDS011;35163;48.878;18.040;2023-03-11T08:21:08;2.70;;;1.60;;
49296;SDS011;35163;48.878;18.040;2023-03-11T08:23:37;2.50;;;1.75;;
49296;SDS011;35163;48.878;18.040;2023-03-11T08:26:04;3.20;;;1.95;;
49296;SDS011;35163;48.878;18.040;2023-03-11T08:28:32;6.57;;;2.92;;
49296;SDS011;35163;48.878;18.040;2023-03-11T08:30:59;2.83;;;1.83;;
49296;SDS011;35163;48.878;18.040;2023-03-11T08:33:26;8.50;;;2.70;;
49296;SDS011;35163;48.878;18.040;2023-03-11T08:35:56;3.33;;;1.70;;
49296;SDS011;35163;48.878;18.040;2023-03-11T08:38:23;3.70;;;2.00;;
49296;SDS011;35163;48.878;18.040;2023-03-11T08:40:49;2.47;;;1.80;;
49296;SDS011;35163;48.878;18.040;2023-03-11T08:43:16;3.30;;;1.95;;
49296;SDS011;35163;48.878;18.040;2023-03-11T08:45:42;2.92;;;1.85;;
49296;SDS011;35163;48.878;18.040;2023-03-11T08:48:10;3.72;;;2.05;;
49296;SDS011;35163;48.878;18.040;2023-03-11T08:50:41;3.25;;;2.00;;
49296;SDS011;35163;48.878;18.040;2023-03-11T08:53:19;2.95;;;1.75;;
49296;SDS011;35163;48.878;18.040;2023-03-11T08:55:46;7.25;;;2.22;;
49296;SDS011;35163;48.878;18.040;2023-03-11T08:58:12;6.63;;;2.00;;
49296;SDS011;35163;48.878;18.040;2023-03-11T09:00:39;3.65;;;2.25;;
49296;SDS011;35163;48.878;18.040;2023-03-11T09:03:05;2.63;;;1.75;;
49296;SDS011;35163;48.878;18.040;2023-03-11T09:05:32;3.60;;;2.10;;
49296;SDS011;35163;48.878;18.040;2023-03-11T09:07:59;3.15;;;1.70;;
49296;SDS011;35163;48.878;18.040;2023-03-11T09:10:25;1.92;;;1.48;;
49296;SDS011;35163;48.878;18.040;2023-03-11T09:12:52;5.15;;;1.70;;
49296;SDS011;35163;48.878;18.040;2023-03-11T09:15:19;4.60;;;1.58;;
49296;SDS011;35163;48.878;18.040;2023-03-11T09:17:45;3.83;;;1.70;;
49296;SDS011;35163;48.878;18.040;2023-03-11T09:20:12;3.08;;;1.40;;
49296;SDS011;35163;48.878;18.040;2023-03-11T09:22:40;3.00;;;1.70;;
49296;SDS011;35163;48.878;18.040;2023-03-11T09:25:08;3.72;;;1.85;;
49296;SDS011;35163;48.878;18.040;2023-03-11T09:27:37;2.60;;;1.55;;
49296;SDS011;35163;48.878;18.040;2023-03-11T09:30:03;2.08;;;1.48;;
49296;SDS011;35163;48.878;18.040;2023-03-11T09:32:31;3.17;;;1.50;;
49296;SDS011;35163;48.878;18.040;2023-03-11T09:34:57;2.25;;;1.40;;
49296;SDS011;35163;48.878;18.040;2023-03-11T09:37:25;2.40;;;1.40;;
49296;SDS011;35163;48.878;18.040;2023-03-11T09:39:52;3.30;;;1.60;;
49296;SDS011;35163;48.878;18.040;2023-03-11T09:42:19;2.25;;;1.60;;
49296;SDS011;35163;48.878;18.040;2023-03-11T09:45:01;3.58;;;1.50;;
49296;SDS011;35163;48.878;18.040;2023-03-11T09:47:33;5.85;;;1.80;;
49296;SDS011;35163;48.878;18.040;2023-03-11T09:58:29;1.90;;;1.60;;
49296;SDS011;35163;48.878;18.040;2023-03-11T10:01:11;1.50;;;1.40;;
49296;SDS011;35163;48.878;18.040;2023-03-11T10:03:43;2.55;;;1.63;;
49296;SDS011;35163;48.878;18.040;2023-03-11T10:06:18;2.90;;;2.00;;
49296;SDS011;35163;48.878;18.040;2023-03-11T10:18:00;2.35;;;1.35;;
49296;SDS011;35163;48.878;18.040;2023-03-11T10:23:23;3.30;;;1.70;;
49296;SDS011;35163;48.878;18.040;2023-03-11T10:26:27;2.65;;;1.58;;
49296;SDS011;35163;48.878;18.040;2023-03-11T10:32:06;5.07;;;2.28;;
49296;SDS011;35163;48.878;18.040;2023-03-11T10:34:43;2.28;;;1.77;;
49296;SDS011;35163;48.878;18.040;2023-03-11T10:37:16;3.13;;;1.95;;
49296;SDS011;35163;48.878;18.040;2023-03-11T10:39:49;2.67;;;1.75;;
49296;SDS011;35163;48.878;18.040;2023-03-11T10:42:24;4.80;;;2.20;;
49296;SDS011;35163;48.878;18.040;2023-03-11T10:44:52;5.30;;;2.50;;
49296;SDS011;35163;48.878;18.040;2023-03-11T10:47:21;4.07;;;2.38;;
49296;SDS011;35163;48.878;18.040;2023-03-11T10:49:49;3.50;;;1.98;;
49296;SDS011;35163;48.878;18.040;2023-03-11T10:52:17;7.72;;;2.10;;
49296;SDS011;35163;48.878;18.040;2023-03-11T10:54:46;6.55;;;2.20;;
49296;SDS011;35163;48.878;18.040;2023-03-11T10:57:27;5.45;;;2.78;;
49296;SDS011;35163;48.878;18.040;2023-03-11T11:00:03;6.18;;;2.70;;
49296;SDS011;35163;48.878;18.040;2023-03-11T11:02:49;5.53;;;2.42;;
49296;SDS011;35163;48.878;18.040;2023-03-11T11:07:48;2.95;;;1.88;;
49296;SDS011;35163;48.878;18.040;2023-03-11T11:12:56;4.97;;;2.30;;
49296;SDS011;35163;48.878;18.040;2023-03-11T11:15:30;3.97;;;2.55;;
49296;SDS011;35163;48.878;18.040;2023-03-11T11:18:01;3.40;;;2.38;;
49296;SDS011;35163;48.878;18.040;2023-03-11T11:20:28;6.82;;;2.42;;
49296;SDS011;35163;48.878;18.040;2023-03-11T11:22:57;4.47;;;2.63;;
49296;SDS011;35163;48.878;18.040;2023-03-11T11:28:02;4.30;;;2.55;;
49296;SDS011;35163;48.878;18.040;2023-03-11T11:33:24;4.60;;;2.28;;
49296;SDS011;35163;48.878;18.040;2023-03-11T11:35:56;4.72;;;2.20;;
49296;SDS011;35163;48.878;18.040;2023-03-11T11:38:27;3.97;;;2.30;;
49296;SDS011;35163;48.878;18.040;2023-03-11T11:40:56;5.00;;;2.60;;
49296;SDS011;35163;48.878;18.040;2023-03-11T11:48:57;5.60;;;2.22;;
49296;SDS011;35163;48.878;18.040;2023-03-11T11:51:32;8.27;;;2.45;;
49296;SDS011;35163;48.878;18.040;2023-03-11T11:54:22;3.28;;;2.03;;
49296;SDS011;35163;48.878;18.040;2023-03-11T11:56:55;3.30;;;2.08;;
49296;SDS011;35163;48.878;18.040;2023-03-11T11:59:24;4.47;;;2.30;;
49296;SDS011;35163;48.878;18.040;2023-03-11T12:04:37;3.55;;;2.17;;
49296;SDS011;35163;48.878;18.040;2023-03-11T12:15:40;3.35;;;2.10;;
49296;SDS011;35163;48.878;18.040;2023-03-11T12:18:32;5.10;;;2.50;;
49296;SDS011;35163;48.878;18.040;2023-03-11T12:21:01;4.90;;;2.47;;
49296;SDS011;35163;48.878;18.040;2023-03-11T12:26:38;3.97;;;2.17;;
49296;SDS011;35163;48.878;18.040;2023-03-11T12:29:31;4.13;;;2.40;;
49296;SDS011;35163;48.878;18.040;2023-03-11T12:32:02;2.95;;;2.22;;
49296;SDS011;35163;48.878;18.040;2023-03-11T12:34:29;4.45;;;2.30;;
49296;SDS011;35163;48.878;18.040;2023-03-11T12:37:00;4.03;;;2.47;;
49296;SDS011;35163;48.878;18.040;2023-03-11T12:39:29;4.25;;;2.38;;
49296;SDS011;35163;48.878;18.040;2023-03-11T12:44:48;4.68;;;2.53;;
49296;SDS011;35163;48.878;18.040;2023-03-11T12:47:20;4.57;;;2.47;;
49296;SDS011;35163;48.878;18.040;2023-03-11T12:49:49;5.10;;;2.83;;
49296;SDS011;35163;48.878;18.040;2023-03-11T12:57:30;5.78;;;2.60;;
49296;SDS011;35163;48.878;18.040;2023-03-11T13:05:41;6.72;;;3.03;;
49296;SDS011;35163;48.878;18.040;2023-03-11T13:08:13;5.47;;;2.80;;
49296;SDS011;35163;48.878;18.040;2023-03-11T13:11:01;4.85;;;2.58;;
49296;SDS011;35163;48.878;18.040;2023-03-11T13:19:56;5.40;;;3.03;;
49296;SDS011;35163;48.878;18.040;2023-03-11T13:23:26;6.45;;;3.13;;
49296;SDS011;35163;48.878;18.040;2023-03-11T13:25:40;5.60;;;3.05;;
49296;SDS011;35163;48.878;18.040;2023-03-11T13:34:09;5.47;;;2.97;;
49296;SDS011;35163;48.878;18.040;2023-03-11T13:36:48;4.28;;;2.75;;
49296;SDS011;35163;48.878;18.040;2023-03-11T13:39:22;5.40;;;3.05;;
49296;SDS011;35163;48.878;18.040;2023-03-11T13:41:57;6.80;;;3.33;;
49296;SDS011;35163;48.878;18.040;2023-03-11T13:44:25;5.05;;;3.08;;
49296;SDS011;35163;48.878;18.040;2023-03-11T13:47:28;6.10;;;2.92;;
49296;SDS011;35163;48.878;18.040;2023-03-11T13:52:51;6.40;;;3.42;;
49296;SDS011;35163;48.878;18.040;2023-03-11T13:55:21;7.28;;;2.97;;
49296;SDS011;35163;48.878;18.040;2023-03-11T13:57:54;5.72;;;3.13;;
49296;SDS011;35163;48.878;18.040;2023-03-11T14:00:23;6.03;;;2.97;;
49296;SDS011;35163;48.878;18.040;2023-03-11T14:02:54;6.13;;;3.13;;
49296;SDS011;35163;48.878;18.040;2023-03-11T14:05:30;5.78;;;3.10;;
49296;SDS011;35163;48.878;18.040;2023-03-11T14:10:52;5.45;;;3.10;;
49296;SDS011;35163;48.878;18.040;2023-03-11T14:13:20;5.60;;;3.00;;
49296;SDS011;35163;48.878;18.040;2023-03-11T14:15:51;6.72;;;3.25;;
49296;SDS011;35163;48.878;18.040;2023-03-11T14:18:24;5.82;;;2.95;;
49296;SDS011;35163;48.878;18.040;2023-03-11T14:20:54;6.60;;;3.33;;
49296;SDS011;35163;48.878;18.040;2023-03-11T14:23:21;5.43;;;3.28;;
49296;SDS011;35163;48.878;18.040;2023-03-11T14:25:58;3.90;;;2.55;;
49296;SDS011;35163;48.878;18.040;2023-03-11T14:28:27;5.93;;;3.10;;
49296;SDS011;35163;48.878;18.040;2023-03-11T14:30:59;4.63;;;2.97;;
49296;SDS011;35163;48.878;18.040;2023-03-11T14:33:27;5.32;;;3.00;;
49296;SDS011;35163;48.878;18.040;2023-03-11T14:35:55;6.25;;;3.10;;
49296;SDS011;35163;48.878;18.040;2023-03-11T14:38:24;5.65;;;3.28;;
49296;SDS011;35163;48.878;18.040;2023-03-11T14:41:00;5.43;;;2.90;;
49296;SDS011;35163;48.878;18.040;2023-03-11T14:43:34;6.13;;;3.20;;
49296;SDS011;35163;48.878;18.040;2023-03-11T14:46:06;6.22;;;3.15;;
49296;SDS011;35163;48.878;18.040;2023-03-11T14:48:37;5.32;;;3.08;;
49296;SDS011;35163;48.878;18.040;2023-03-11T14:51:14;5.18;;;2.97;;
49296;SDS011;35163;48.878;18.040;2023-03-11T14:53:45;5.15;;;2.92;;
49296;SDS011;35163;48.878;18.040;2023-03-11T14:56:19;6.18;;;3.20;;
49296;SDS011;35163;48.878;18.040;2023-03-11T14:58:59;7.18;;;2.90;;
49296;SDS011;35163;48.878;18.040;2023-03-11T15:01:39;5.85;;;3.08;;
49296;SDS011;35163;48.878;18.040;2023-03-11T15:04:21;5.72;;;3.17;;
49296;SDS011;35163;48.878;18.040;2023-03-11T15:06:52;5.55;;;2.85;;
49296;SDS011;35163;48.878;18.040;2023-03-11T15:09:20;5.85;;;3.25;;
49296;SDS011;35163;48.878;18.040;2023-03-11T15:11:56;6.18;;;3.17;;
49296;SDS011;35163;48.878;18.040;2023-03-11T15:14:28;5.55;;;2.92;;
49296;SDS011;35163;48.878;18.040;2023-03-11T15:20:21;9.77;;;4.30;;
49296;SDS011;35163;48.878;18.040;2023-03-11T15:23:03;6.53;;;3.25;;
49296;SDS011;35163;48.878;18.040;2023-03-11T15:25:31;5.07;;;2.83;;
49296;SDS011;35163;48.878;18.040;2023-03-11T15:33:45;6.65;;;3.80;;
49296;SDS011;35163;48.878;18.040;2023-03-11T15:39:09;4.68;;;3.00;;
49296;SDS011;35163;48.878;18.040;2023-03-11T15:41:44;6.87;;;3.20;;
49296;SDS011;35163;48.878;18.040;2023-03-11T15:44:33;4.70;;;2.78;;
49296;SDS011;35163;48.878;18.040;2023-03-11T15:47:04;7.95;;;3.50;;
49296;SDS011;35163;48.878;18.040;2023-03-11T15:49:32;6.03;;;3.30;;
49296;SDS011;35163;48.878;18.040;2023-03-11T15:51:59;7.97;;;4.03;;
49296;SDS011;35163;48.878;18.040;2023-03-11T15:54:26;11.05;;;3.92;;
49296;SDS011;35163;48.878;18.040;2023-03-11T15:56:53;7.75;;;4.28;;
49296;SDS011;35163;48.878;18.040;2023-03-11T15:59:23;6.43;;;3.33;;
49296;SDS011;35163;48.878;18.040;2023-03-11T16:01:49;8.52;;;2.97;;
49296;SDS011;35163;48.878;18.040;2023-03-11T16:04:16;6.75;;;3.42;;
49296;SDS011;35163;48.878;18.040;2023-03-11T16:06:45;6.03;;;3.17;;
49296;SDS011;35163;48.878;18.040;2023-03-11T16:09:28;8.55;;;3.50;;
49296;SDS011;35163;48.878;18.040;2023-03-11T16:11:56;6.18;;;3.55;;
49296;SDS011;35163;48.878;18.040;2023-03-11T16:14:23;5.35;;;3.00;;
49296;SDS011;35163;48.878;18.040;2023-03-11T16:16:50;7.35;;;3.08;;
49296;SDS011;35163;48.878;18.040;2023-03-11T16:19:16;6.65;;;3.00;;
49296;SDS011;35163;48.878;18.040;2023-03-11T16:21:43;7.40;;;3.63;;
49296;SDS011;35163;48.878;18.040;2023-03-11T16:24:16;7.95;;;3.67;;
49296;SDS011;35163;48.878;18.040;2023-03-11T16:26:46;7.82;;;2.95;;
49296;SDS011;35163;48.878;18.040;2023-03-11T16:29:12;10.60;;;3.53;;
49296;SDS011;35163;48.878;18.040;2023-03-11T16:31:44;5.55;;;2.95;;
49296;SDS011;35163;48.878;18.040;2023-03-11T16:34:12;6.65;;;3.40;;
49296;SDS011;35163;48.878;18.040;2023-03-11T16:36:38;7.03;;;3.83;;
49296;SDS011;35163;48.878;18.040;2023-03-11T16:39:05;6.25;;;3.17;;
49296;SDS011;35163;48.878;18.040;2023-03-11T16:41:41;7.60;;;3.50;;